createdAt,value
2018-03-24T00:00:52.417Z,81.70
2018-03-24T00:03:22.849Z,81.60
2018-03-24T00:05:55.089Z,81.60
2018-03-24T00:08:25.871Z,81.60
2018-03-24T00:10:56.556Z,81.40
2018-03-24T00:13:27.749Z,80.90
2018-03-24T00:15:58.210Z,80.90
2018-03-24T00:18:29.088Z,80.50
2018-03-24T00:21:00.367Z,80.10
2018-03-24T00:23:31.176Z,80.10
2018-03-24T00:26:02.004Z,79.70
2018-03-24T00:28:33.591Z,79.80
2018-03-24T00:31:05.072Z,79.80
2018-03-24T00:33:35.751Z,79.90
2018-03-24T00:36:07.251Z,79.30
2018-03-24T00:38:37.718Z,79.40
2018-03-24T00:41:08.980Z,80.60
2018-03-24T00:43:39.456Z,79.80
2018-03-24T00:46:10.452Z,79.50
2018-03-24T00:48:40.938Z,78.30
2018-03-24T00:51:13.236Z,77.10
2018-03-24T00:53:45.371Z,77.00
2018-03-24T00:56:15.902Z,77.00
2018-03-24T00:58:47.138Z,75.90
2018-03-24T01:01:17.714Z,75.80
2018-03-24T01:03:48.170Z,76.30
2018-03-24T01:06:20.308Z,76.80
2018-03-24T01:08:51.212Z,77.00
2018-03-24T01:11:22.774Z,76.50
2018-03-24T01:13:54.272Z,76.20
2018-03-24T01:16:26.434Z,75.40
2018-03-24T01:18:56.892Z,75.30
2018-03-24T01:21:27.372Z,73.80
2018-03-24T01:23:57.848Z,72.70
2018-03-24T01:26:29.199Z,72.20
2018-03-24T01:28:59.635Z,72.10
2018-03-24T01:31:32.758Z,71.80
2018-03-24T01:34:03.216Z,71.70
2018-03-24T01:36:34.142Z,71.30
2018-03-24T01:39:04.668Z,70.60
2018-03-24T01:41:35.728Z,70.60
2018-03-24T01:44:06.580Z,70.00
2018-03-24T01:46:37.026Z,68.40
2018-03-24T01:49:07.812Z,67.60
2018-03-24T01:51:39.040Z,67.00
2018-03-24T01:54:12.619Z,67.00
2018-03-24T01:56:44.761Z,66.30
2018-03-24T01:59:15.228Z,66.30
2018-03-24T02:01:45.708Z,66.10
2018-03-24T02:04:16.190Z,65.30
2018-03-24T02:06:46.658Z,65.00
2018-03-24T02:09:17.089Z,64.50
2018-03-24T02:11:47.825Z,64.20
2018-03-24T02:14:18.319Z,63.70
2018-03-24T02:16:49.212Z,63.10
2018-03-24T02:19:20.449Z,63.00
2018-03-24T02:21:51.145Z,62.90
2018-03-24T02:24:21.917Z,62.60
2018-03-24T02:26:52.393Z,62.00
2018-03-24T02:29:25.210Z,61.40
2018-03-24T02:31:55.687Z,60.20
2018-03-24T02:34:28.407Z,60.60
2018-03-24T02:36:59.152Z,60.50
2018-03-24T02:39:29.827Z,59.90
2018-03-24T02:42:00.350Z,60.10
2018-03-24T02:44:31.576Z,60.10
2018-03-24T02:47:02.048Z,60.00
2018-03-24T02:49:32.528Z,59.40
2018-03-24T02:52:03.133Z,59.10
2018-03-24T02:54:33.611Z,58.30
2018-03-24T02:57:05.133Z,59.00
2018-03-24T02:59:35.571Z,59.00
2018-03-24T03:02:06.830Z,58.10
2018-03-24T03:04:38.084Z,57.90
2018-03-24T03:07:08.544Z,57.80
2018-03-24T03:09:39.011Z,57.60
2018-03-24T03:12:09.489Z,57.10
2018-03-24T03:14:41.046Z,57.10
2018-03-24T03:17:11.527Z,56.90
2018-03-24T03:19:43.842Z,56.50
2018-03-24T03:22:14.815Z,56.50
2018-03-24T03:24:45.291Z,56.60
2018-03-24T03:27:16.810Z,56.40
2018-03-24T03:29:47.258Z,56.80
2018-03-24T03:32:19.709Z,56.30
2018-03-24T03:34:50.159Z,56.20
2018-03-24T03:37:22.854Z,55.80
2018-03-24T03:39:53.299Z,55.80
2018-03-24T03:42:23.764Z,56.00
2018-03-24T03:44:54.236Z,55.50
2018-03-24T03:47:26.470Z,55.90
2018-03-24T03:49:56.924Z,56.00
2018-03-24T03:52:27.758Z,55.30
2018-03-24T03:54:59.491Z,55.30
2018-03-24T03:57:30.776Z,55.10
2018-03-24T04:00:01.820Z,55.00
2018-03-24T04:02:32.263Z,54.50
2018-03-24T04:05:02.775Z,54.30
2018-03-24T04:07:33.255Z,54.20
2018-03-24T04:10:03.732Z,54.10
2018-03-24T04:12:34.508Z,53.60
2018-03-24T04:15:05.559Z,54.00
2018-03-24T04:17:36.284Z,54.20
2018-03-24T04:20:06.816Z,53.70
2018-03-24T04:22:38.153Z,54.00
2018-03-24T04:25:08.700Z,52.30
2018-03-24T04:27:39.151Z,53.00
2018-03-24T04:30:10.351Z,54.80
2018-03-24T04:32:41.079Z,54.70
2018-03-24T04:35:12.285Z,55.40
2018-03-24T04:37:42.905Z,54.50
2018-03-24T04:40:16.212Z,55.00
2018-03-24T04:42:46.695Z,54.90
2018-03-24T04:45:17.127Z,54.90
2018-03-24T04:47:47.563Z,55.00
2018-03-24T04:50:19.696Z,54.60
2018-03-24T04:52:50.146Z,54.60
2018-03-24T04:55:20.604Z,55.00
2018-03-24T04:57:51.956Z,54.90
2018-03-24T05:00:22.398Z,54.80
2018-03-24T05:02:53.660Z,54.70
2018-03-24T05:05:24.419Z,54.70
2018-03-24T05:07:55.734Z,54.30
2018-03-24T05:10:26.250Z,54.00
2018-03-24T05:12:57.044Z,54.30
2018-03-24T05:15:27.775Z,53.50
2018-03-24T05:17:58.263Z,53.10
2018-03-24T05:20:28.730Z,53.00
2018-03-24T05:22:59.176Z,52.30
2018-03-24T05:25:30.383Z,52.20
2018-03-24T05:28:00.889Z,52.10
2018-03-24T05:30:32.440Z,51.80
2018-03-24T05:33:02.887Z,51.90
2018-03-24T05:35:33.347Z,51.50
2018-03-24T05:38:04.895Z,51.40
2018-03-24T05:40:35.344Z,51.30
2018-03-24T05:43:06.591Z,50.80
2018-03-24T05:45:37.026Z,50.80
2018-03-24T05:48:08.776Z,50.10
2018-03-24T05:50:40.728Z,50.20
2018-03-24T05:53:12.771Z,50.50
2018-03-24T05:55:44.166Z,51.10
2018-03-24T05:58:14.599Z,49.60
2018-03-24T06:00:45.318Z,48.60
2018-03-24T06:03:15.781Z,49.70
2018-03-24T06:05:46.361Z,50.20
2018-03-24T06:08:17.892Z,50.70
2018-03-24T06:10:49.577Z,50.70
2018-03-24T06:13:20.791Z,50.70
2018-03-24T06:15:51.564Z,50.70
2018-03-24T06:18:22.015Z,50.90
2018-03-24T06:20:52.448Z,49.90
2018-03-24T06:23:23.334Z,50.10
2018-03-24T06:25:54.559Z,49.80
2018-03-24T06:28:25.495Z,49.80
2018-03-24T06:30:58.789Z,49.00
2018-03-24T06:33:29.237Z,49.00
2018-03-24T06:36:15.883Z,49.60
2018-03-24T06:38:46.364Z,49.40
2018-03-24T06:41:18.859Z,50.60
2018-03-24T06:43:49.319Z,50.50
2018-03-24T06:46:20.096Z,50.80
2018-03-24T06:48:50.568Z,51.20
2018-03-24T06:51:21.007Z,51.50
2018-03-24T06:53:51.510Z,51.70
2018-03-24T06:56:21.970Z,51.70
2018-03-24T06:58:52.629Z,51.50
2018-03-24T07:01:23.192Z,51.80
2018-03-24T07:03:54.049Z,51.00
2018-03-24T07:06:24.803Z,50.80
2018-03-24T07:08:55.259Z,50.60
2018-03-24T07:11:25.731Z,50.00
2018-03-24T07:13:56.159Z,50.90
2018-03-24T07:16:26.908Z,51.00
2018-03-24T07:18:57.336Z,50.70
2018-03-24T07:21:28.259Z,51.20
2018-03-24T07:23:58.678Z,51.20
2018-03-24T07:26:29.185Z,51.00
2018-03-24T07:29:00.482Z,49.90
2018-03-24T07:31:32.639Z,50.00
2018-03-24T07:34:03.047Z,49.90
2018-03-24T07:36:33.676Z,50.20
2018-03-24T07:39:04.190Z,49.70
2018-03-24T07:41:35.459Z,49.90
2018-03-24T07:44:07.091Z,49.90
2018-03-24T07:46:38.699Z,50.10
2018-03-24T07:49:09.464Z,50.00
2018-03-24T07:51:40.120Z,49.80
2018-03-24T07:54:10.621Z,50.40
2018-03-24T07:56:41.060Z,51.00
2018-03-24T07:59:12.292Z,51.00
2018-03-24T08:01:42.769Z,51.00
2018-03-24T08:04:13.613Z,51.60
2018-03-24T08:06:45.439Z,51.60
2018-03-24T08:09:16.728Z,50.00
2018-03-24T08:11:47.196Z,50.00
2018-03-24T08:14:18.443Z,49.90
2018-03-24T08:16:49.682Z,50.00
2018-03-24T08:19:20.983Z,49.80
2018-03-24T08:21:51.639Z,49.80
2018-03-24T08:24:22.566Z,49.60
2018-03-24T08:26:53.009Z,50.00
2018-03-24T08:29:24.683Z,49.50
2018-03-24T08:31:55.160Z,49.40
2018-03-24T08:34:25.680Z,49.60
2018-03-24T08:36:56.139Z,48.90
2018-03-24T08:39:26.564Z,49.60
2018-03-24T08:41:57.914Z,49.30
2018-03-24T08:44:28.382Z,48.60
2018-03-24T08:47:00.640Z,49.50
2018-03-24T08:49:31.092Z,48.80
2018-03-24T08:52:01.565Z,48.80
2018-03-24T08:54:32.036Z,49.20
2018-03-24T08:57:04.159Z,50.00
2018-03-24T08:59:35.867Z,50.00
2018-03-24T09:02:06.506Z,49.70
2018-03-24T09:04:37.086Z,49.80
2018-03-24T09:07:07.567Z,50.50
2018-03-24T09:09:38.308Z,51.40
2018-03-24T09:12:08.815Z,52.20
2018-03-24T09:14:41.820Z,54.20
2018-03-24T09:17:12.307Z,53.50
2018-03-24T09:19:42.780Z,53.80
2018-03-24T09:22:13.255Z,54.10
2018-03-24T09:24:43.765Z,53.70
2018-03-24T09:27:14.618Z,53.80
2018-03-24T09:29:45.083Z,54.00
2018-03-24T09:32:16.712Z,53.80
2018-03-24T09:34:47.175Z,53.80
2018-03-24T09:37:17.618Z,54.00
2018-03-24T09:39:48.091Z,54.20
2018-03-24T09:42:18.564Z,54.30
2018-03-24T09:44:49.023Z,55.10
2018-03-24T09:47:19.475Z,56.20
2018-03-24T09:49:50.338Z,56.00
2018-03-24T09:52:21.096Z,56.60
2018-03-24T09:54:52.396Z,57.10
2018-03-24T09:57:24.620Z,56.80
2018-03-24T09:59:55.072Z,56.80
2018-03-24T10:02:25.542Z,56.70
2018-03-24T10:04:58.039Z,57.30
2018-03-24T10:07:28.503Z,58.00
2018-03-24T10:09:59.115Z,58.40
2018-03-24T10:12:30.954Z,58.80
2018-03-24T10:15:01.436Z,59.10
2018-03-24T10:17:32.271Z,59.60
2018-03-24T10:20:02.743Z,59.70
2018-03-24T10:25:38.263Z,60.50
2018-03-24T10:28:09.978Z,60.10
2018-03-24T10:30:40.452Z,60.20
2018-03-24T10:33:10.893Z,60.30
2018-03-24T10:35:42.127Z,60.20
2018-03-24T10:38:13.331Z,60.30
2018-03-24T10:40:43.797Z,60.20
2018-03-24T10:43:19.194Z,60.70
2018-03-24T10:45:49.851Z,61.00
2018-03-24T10:48:20.344Z,61.00
2018-03-24T10:50:51.144Z,61.20
2018-03-24T10:53:22.666Z,61.50
2018-03-24T10:55:53.132Z,61.40
2018-03-24T10:58:24.315Z,61.60
2018-03-24T11:00:59.864Z,61.50
2018-03-24T11:03:30.307Z,61.80
2018-03-24T11:06:00.999Z,62.30
2018-03-24T11:08:33.443Z,62.80
2018-03-24T11:11:04.703Z,62.80
2018-03-24T11:13:35.959Z,62.80
2018-03-24T11:16:06.511Z,62.80
2018-03-24T11:18:36.959Z,62.70
2018-03-24T11:21:07.413Z,62.90
2018-03-24T11:23:37.842Z,62.70
2018-03-24T11:26:08.790Z,62.80
2018-03-24T11:28:40.182Z,63.30
2018-03-24T11:31:11.985Z,63.30
2018-03-24T11:33:43.269Z,63.10
2018-03-24T11:36:14.614Z,63.00
2018-03-24T11:38:45.137Z,62.90
2018-03-24T11:41:15.658Z,62.90
2018-03-24T11:43:46.883Z,63.00
2018-03-24T11:46:17.344Z,63.00
2018-03-24T11:48:48.043Z,63.30
2018-03-24T11:51:18.576Z,63.60
2018-03-24T11:53:51.075Z,64.50
2018-03-24T11:56:21.543Z,64.40
2018-03-24T11:58:51.994Z,65.00
2018-03-24T12:01:22.460Z,65.20
2018-03-24T12:03:53.675Z,64.10
2018-03-24T12:06:25.039Z,64.00
2018-03-24T12:08:56.259Z,64.60
2018-03-24T12:11:28.876Z,64.60
2018-03-24T12:13:59.348Z,65.50
2018-03-24T12:16:32.838Z,65.60
2018-03-24T12:19:03.297Z,65.60
2018-03-24T12:21:33.800Z,65.50
2018-03-24T12:24:04.275Z,65.50
2018-03-24T12:26:35.497Z,65.60
2018-03-24T12:29:06.068Z,65.50
2018-03-24T12:31:38.399Z,65.70
2018-03-24T12:34:10.056Z,65.60
2018-03-24T12:36:40.521Z,65.60
2018-03-24T12:39:11.985Z,65.50
2018-03-24T12:41:42.636Z,65.40
2018-03-24T12:44:13.096Z,65.60
2018-03-24T12:46:43.780Z,65.60
2018-03-24T12:49:14.251Z,65.80
2018-03-24T12:51:46.084Z,66.00
2018-03-24T12:54:17.472Z,66.80
2018-03-24T12:56:50.112Z,66.60
2018-03-24T12:59:21.175Z,66.40
2018-03-24T13:01:51.662Z,66.40
2018-03-24T13:04:22.160Z,66.30
2018-03-24T13:06:53.383Z,66.30
2018-03-24T13:09:25.528Z,66.50
2018-03-24T13:11:55.979Z,66.50
2018-03-24T13:14:27.646Z,66.40
2018-03-24T13:16:58.874Z,66.50
2018-03-24T13:19:29.762Z,66.50
2018-03-24T13:22:01.129Z,66.70
2018-03-24T13:24:31.832Z,66.90
2018-03-24T13:27:02.312Z,66.90
2018-03-24T13:29:33.667Z,66.80
2018-03-24T13:32:04.179Z,66.70
2018-03-24T13:34:34.642Z,66.70
2018-03-24T13:37:06.704Z,66.90
2018-03-24T13:39:37.915Z,67.10
2018-03-24T13:42:09.215Z,67.10
2018-03-24T13:44:39.907Z,67.30
2018-03-24T13:47:10.358Z,67.80
2018-03-24T13:49:41.588Z,71.70
2018-03-24T13:52:12.047Z,71.60
2018-03-24T13:54:42.495Z,73.10
2018-03-24T13:57:13.053Z,72.90
2018-03-24T13:59:45.636Z,74.20
2018-03-24T14:02:16.917Z,74.70
2018-03-24T14:04:48.144Z,75.00
2018-03-24T14:07:19.350Z,75.30
2018-03-24T14:09:49.842Z,75.30
2018-03-24T14:12:20.288Z,75.80
2018-03-24T14:14:50.888Z,76.50
2018-03-24T14:17:22.333Z,75.30
2018-03-24T14:19:53.543Z,76.70
2018-03-24T14:22:25.400Z,76.60
2018-03-24T14:24:57.079Z,76.90
2018-03-24T14:27:29.071Z,77.90
2018-03-24T14:29:59.506Z,76.60
2018-03-24T14:32:29.980Z,77.80
2018-03-24T14:35:00.451Z,77.50
2018-03-24T14:37:32.596Z,77.10
2018-03-24T14:40:03.467Z,77.10
2018-03-24T14:42:33.924Z,76.50
2018-03-24T14:45:04.364Z,76.20
2018-03-24T14:47:34.817Z,76.90
2018-03-24T14:50:06.183Z,77.50
2018-03-24T14:52:38.192Z,77.30
2018-03-24T14:55:09.470Z,77.30
2018-03-24T14:57:40.896Z,77.60
2018-03-24T15:00:11.621Z,77.60
2018-03-24T15:02:43.195Z,77.00
2018-03-24T15:05:13.689Z,77.00
2018-03-24T15:07:44.163Z,76.90
2018-03-24T15:10:15.659Z,76.90
2018-03-24T15:12:46.108Z,77.00
2018-03-24T15:15:16.570Z,77.60
2018-03-24T15:17:47.820Z,78.20
2018-03-24T15:20:19.267Z,78.30
2018-03-24T15:22:50.475Z,78.60
2018-03-24T15:25:21.923Z,78.50
2018-03-24T15:27:52.347Z,79.20
2018-03-24T15:30:33.377Z,79.10
2018-03-24T15:33:15.220Z,78.00
2018-03-24T15:35:56.227Z,78.10
2018-03-24T15:38:27.117Z,78.90
2018-03-24T15:40:57.564Z,80.30
2018-03-24T15:43:28.047Z,80.00
2018-03-24T15:45:59.405Z,80.20
2018-03-24T15:48:29.895Z,80.10
2018-03-24T15:51:00.365Z,80.00
2018-03-24T15:53:30.896Z,80.00
2018-03-24T15:56:01.465Z,79.90
2018-03-24T15:58:31.916Z,80.50
2018-03-24T16:01:03.274Z,80.30
2018-03-24T16:03:35.452Z,80.00
2018-03-24T16:06:05.888Z,80.00
2018-03-24T16:08:36.689Z,80.00
2018-03-24T16:11:07.983Z,80.20
2018-03-24T16:13:38.508Z,80.10
2018-03-24T16:16:08.993Z,80.30
2018-03-24T16:18:40.608Z,80.20
2018-03-24T16:21:11.082Z,80.30
2018-03-24T16:23:42.759Z,80.00
2018-03-24T16:26:13.244Z,80.00
2018-03-24T16:28:43.735Z,80.80
2018-03-24T16:31:14.180Z,80.30
2018-03-24T16:33:45.444Z,80.50
2018-03-24T16:36:15.904Z,80.60
2018-03-24T16:38:48.111Z,80.10
2018-03-24T16:41:18.992Z,80.10
2018-03-24T16:43:50.270Z,80.30
2018-03-24T16:46:21.088Z,80.30
2018-03-24T16:48:52.303Z,80.00
2018-03-24T16:51:23.644Z,80.00
2018-03-24T16:53:54.124Z,80.00
2018-03-24T16:56:24.596Z,80.10
2018-03-24T16:58:55.060Z,80.10
2018-03-24T17:01:26.741Z,80.20
2018-03-24T17:03:57.573Z,80.20
2018-03-24T17:06:28.059Z,80.30
2018-03-24T17:08:58.870Z,80.30
2018-03-24T17:11:29.330Z,80.50
2018-03-24T17:14:00.762Z,80.60
2018-03-24T17:16:31.214Z,80.30
2018-03-24T17:19:02.417Z,80.20
2018-03-24T17:21:33.177Z,80.10
2018-03-24T17:24:03.664Z,80.20
2018-03-24T17:26:34.356Z,80.10
2018-03-24T17:29:05.622Z,80.30
2018-03-24T17:31:36.084Z,80.30
2018-03-24T17:34:06.640Z,80.30
2018-03-24T17:36:37.112Z,80.30
2018-03-24T17:39:08.056Z,80.50
2018-03-24T17:41:38.516Z,80.60
2018-03-24T17:44:09.248Z,80.70
2018-03-24T17:46:39.731Z,80.80
2018-03-24T17:49:11.451Z,80.50
2018-03-24T17:51:41.892Z,80.60
2018-03-24T17:54:14.188Z,81.10
2018-03-24T17:56:44.665Z,81.10
2018-03-24T17:59:15.190Z,81.30
2018-03-24T18:01:45.691Z,81.60
2018-03-24T18:04:16.189Z,81.40
2018-03-24T18:06:48.389Z,81.50
2018-03-24T18:09:19.134Z,81.40
2018-03-24T18:11:49.919Z,81.40
2018-03-24T18:14:21.127Z,81.50
2018-03-24T18:16:51.612Z,81.40
2018-03-24T18:19:22.068Z,81.30
2018-03-24T18:21:52.539Z,81.30
2018-03-24T18:24:23.773Z,81.70
2018-03-24T18:26:54.388Z,81.60
2018-03-24T18:29:25.317Z,81.80
2018-03-24T18:31:56.688Z,82.00
2018-03-24T18:34:27.259Z,82.20
2018-03-24T18:36:57.688Z,82.40
2018-03-24T18:39:28.634Z,82.30
2018-03-24T18:41:59.091Z,82.20
2018-03-24T18:44:29.564Z,82.00
2018-03-24T18:47:00.791Z,82.20
2018-03-24T18:49:31.215Z,82.20
2018-03-24T18:52:01.693Z,82.30
2018-03-24T18:54:32.156Z,82.40
2018-03-24T18:57:03.389Z,82.60
2018-03-24T18:59:34.772Z,82.60
2018-03-24T19:02:07.474Z,82.90
2018-03-24T19:04:37.935Z,82.90
2018-03-24T19:07:08.679Z,83.00
2018-03-24T19:09:42.034Z,83.00
2018-03-24T19:12:12.509Z,83.00
2018-03-24T19:14:44.116Z,83.00
2018-03-24T19:17:14.594Z,83.00
2018-03-24T19:19:45.059Z,82.80
2018-03-24T19:22:16.289Z,82.80
2018-03-24T19:24:48.144Z,82.80
2018-03-24T19:27:18.629Z,82.60
2018-03-24T19:29:49.079Z,82.70
2018-03-24T19:32:19.952Z,82.80
2018-03-24T19:34:52.103Z,82.60
2018-03-24T19:37:23.459Z,82.30
2018-03-24T19:39:54.743Z,82.50
2018-03-24T19:42:25.190Z,82.40
2018-03-24T19:44:55.664Z,82.40
2018-03-24T19:47:26.876Z,83.00
2018-03-24T19:49:58.657Z,83.00
2018-03-24T19:52:29.178Z,84.00
2018-03-24T19:54:59.994Z,83.30
2018-03-24T19:57:32.863Z,83.60
2018-03-24T20:00:04.292Z,83.60
2018-03-24T20:02:35.448Z,83.50
2018-03-24T20:05:05.986Z,83.80
2018-03-24T20:07:36.490Z,84.00
2018-03-24T20:10:07.524Z,84.10
2018-03-24T20:12:39.230Z,84.20
2018-03-24T20:15:09.734Z,84.30
2018-03-24T20:17:41.401Z,84.30
2018-03-24T20:20:11.860Z,84.20
2018-03-24T20:22:42.355Z,84.10
2018-03-24T20:25:12.820Z,84.10
2018-03-24T20:27:43.275Z,84.00
2018-03-24T20:30:13.724Z,83.90
2018-03-24T20:32:44.171Z,84.00
2018-03-24T20:35:15.853Z,84.00
2018-03-24T20:37:48.078Z,84.30
2018-03-24T20:40:19.572Z,84.30
2018-03-24T20:42:50.030Z,84.30
2018-03-24T20:45:20.517Z,84.30
2018-03-24T20:47:51.014Z,84.30
2018-03-24T20:50:21.472Z,84.30
2018-03-24T20:52:51.925Z,84.20
2018-03-24T20:55:23.119Z,84.20
2018-03-24T20:57:55.609Z,84.20
2018-03-24T21:00:26.074Z,84.40
2018-03-24T21:02:57.929Z,84.10
2018-03-24T21:05:30.090Z,84.10
2018-03-24T21:08:01.331Z,84.20
2018-03-24T21:10:31.802Z,84.20
2018-03-24T21:13:03.436Z,84.40
2018-03-24T21:15:34.313Z,84.50
2018-03-24T21:18:04.767Z,84.30
2018-03-24T21:20:35.507Z,84.00
2018-03-24T21:23:05.981Z,84.10
2018-03-24T21:25:36.525Z,84.00
2018-03-24T21:28:06.975Z,83.90
2018-03-24T21:30:37.410Z,84.00
2018-03-24T21:33:07.946Z,83.90
2018-03-24T21:35:38.384Z,84.10
2018-03-24T21:38:10.755Z,84.90
2018-03-24T21:40:42.919Z,84.20
2018-03-24T21:43:15.411Z,84.30
2018-03-24T21:45:47.252Z,84.40
2018-03-24T21:48:17.686Z,84.40
2018-03-24T21:50:48.928Z,84.50
2018-03-24T21:53:20.147Z,84.40
2018-03-24T21:55:50.629Z,84.30
2018-03-24T21:58:21.096Z,84.40
2018-03-24T22:00:51.897Z,84.60
2018-03-24T22:03:22.359Z,84.60
2018-03-24T22:05:53.915Z,84.70
2018-03-24T22:08:25.302Z,84.90
2018-03-24T22:10:57.679Z,84.70
2018-03-24T22:13:28.902Z,84.80
2018-03-24T22:15:59.369Z,84.80
2018-03-24T22:18:29.864Z,84.70
2018-03-24T22:21:01.088Z,84.10
2018-03-24T22:23:32.016Z,84.10
2018-03-24T22:26:02.476Z,84.10
2018-03-24T22:28:35.217Z,84.00
2018-03-24T22:31:06.123Z,83.90
2018-03-24T22:33:38.659Z,83.70
2018-03-24T22:36:09.102Z,83.70
2018-03-24T22:38:40.329Z,83.50
2018-03-24T22:41:11.226Z,83.50
2018-03-24T22:43:41.684Z,83.50
2018-03-24T22:46:12.540Z,83.40
2018-03-24T22:48:43.770Z,83.90
2018-03-24T22:51:14.222Z,83.80
2018-03-24T22:53:45.440Z,84.00
2018-03-24T22:56:15.887Z,84.00
2018-03-24T22:58:46.529Z,84.00
2018-03-24T23:01:22.744Z,83.70
2018-03-24T23:03:54.328Z,83.70
2018-03-24T23:06:25.785Z,83.70
2018-03-24T23:08:57.464Z,83.80
2018-03-24T23:11:27.943Z,83.80
2018-03-24T23:13:58.382Z,83.50
2018-03-24T23:16:28.840Z,83.10
2018-03-24T23:19:00.064Z,83.30
2018-03-24T23:21:32.245Z,83.40
2018-03-24T23:24:03.491Z,83.30
2018-03-24T23:26:34.747Z,83.10
2018-03-24T23:29:05.585Z,83.00
2018-03-24T23:31:36.544Z,82.90
2018-03-24T23:34:07.481Z,82.90
2018-03-24T23:36:39.312Z,82.80
2018-03-24T23:39:10.428Z,82.80
2018-03-24T23:41:41.472Z,82.60
2018-03-24T23:44:12.778Z,82.60
2018-03-24T23:46:44.850Z,82.70
2018-03-24T23:49:15.850Z,82.70
2018-03-24T23:51:46.837Z,82.90
2018-03-24T23:54:17.757Z,82.80
2018-03-24T23:56:49.584Z,82.70
2018-03-24T23:59:20.706Z,82.60
